WetterOnline ( http://www.wetteronline.de )

Wetter aktuell Südschwarzwald (in 1400m)

Aktuelles Wetter: Feldberg/Schwarzwald (1493m)

6-stündlich | Neueste Meldungen
Ortszeit Temperatur Wetter
So, 17.02. 1:00 8.9° C fast wolkenlos
Sa, 16.02. 19:00 9.0° C fast wolkenlos
Sa, 16.02. 13:00 10.5° C fast wolkenlos
Sa, 16.02. 7:00 9.6° C wolkenlos
Sa, 16.02. 1:00 10.0° C wolkenlos
Fr, 15.02. 19:00 9.3° C wolkenlos
Fr, 15.02. 13:00 9.6° C fast wolkenlos
Fr, 15.02. 7:00 7.2° C wolkenlos
Ortszeit Temperatur Wetter
So, 17.02. 2:30 8.1° C wolkenlos
So, 17.02. 2:20 8.1° C wolkenlos
So, 17.02. 2:10 8.1° C wolkenlos
So, 17.02. 2:00 8.4° C fast wolkenlos
So, 17.02. 1:50 8.4° C fast wolkenlos
So, 17.02. 1:40 8.4° C fast wolkenlos
So, 17.02. 1:30 8.3° C wolkenlos
So, 17.02. 1:00 8.9° C fast wolkenlos
So, 17.02. 0:30 9.1° C wolkenlos
So, 17.02. 0:00 9.4° C fast wolkenlos
Sa, 16.02. 23:30 9.4° C fast wolkenlos
Ortszeit Relative Feuchte Sichtweite
So, 17.02. 1:00 13% >70 km
Sa, 16.02. 19:00 28% >70 km
Sa, 16.02. 13:00 9% 50 km
Sa, 16.02. 7:00 12% >70 km
Sa, 16.02. 1:00 14% >70 km
Fr, 15.02. 19:00 16% 60 km
Fr, 15.02. 13:00 15% >70 km
Fr, 15.02. 7:00 14% >70 km
Ortszeit Relative Feuchte Sichtweite
So, 17.02. 2:30 17% >70 km
So, 17.02. 2:20 17% -
So, 17.02. 2:10 17% -
So, 17.02. 2:00 19% >70 km
So, 17.02. 1:50 19% -
So, 17.02. 1:40 18% -
So, 17.02. 1:30 16% >70 km
So, 17.02. 1:00 13% >70 km
So, 17.02. 0:30 14% >70 km
So, 17.02. 0:00 14% >70 km
Sa, 16.02. 23:30 14% >70 km
Ortszeit Niederschlagsmenge Niederschlagsart
So, 17.02. 1:00 0.0 l/m2 in 6 Std. -
Sa, 16.02. 19:00 0.0 l/m2 in 12 Std. -
Sa, 16.02. 13:00 0.0 l/m2 in 6 Std. -
Sa, 16.02. 7:00 0.0 l/m2 in 12 Std. -
Sa, 16.02. 1:00 0.0 l/m2 in 6 Std. -
Fr, 15.02. 19:00 0.0 l/m2 in 12 Std. -
Fr, 15.02. 13:00 0.0 l/m2 in 6 Std. -
Fr, 15.02. 7:00 0.0 l/m2 in 12 Std. -
Ortszeit Niederschlagsmenge Niederschlagsart
So, 17.02. 2:30 0.0 l/m2 in 1 Std. -
So, 17.02. 2:20 keine Meldung -
So, 17.02. 2:10 keine Meldung -
So, 17.02. 2:00 0.0 l/m2 in 1 Std. -
So, 17.02. 1:50 keine Meldung -
So, 17.02. 1:40 keine Meldung -
So, 17.02. 1:30 0.0 l/m2 in 1 Std. -
So, 17.02. 1:00 0.0 l/m2 in 1 Std. -
So, 17.02. 0:30 0.0 l/m2 in 1 Std. -
So, 17.02. 0:00 0.0 l/m2 in 1 Std. -
Sa, 16.02. 23:30 0.0 l/m2 in 1 Std. -
Ortszeit Stärke Spitze Richtung
km/h Bft. km/h Grad Sektor
So, 17.02. 1:00 11 2 14 200° S
Sa, 16.02. 19:00 9 2 11 160° S
Sa, 16.02. 13:00 9 2 31 280° W
Sa, 16.02. 7:00 25 4 29 240° SW
Sa, 16.02. 1:00 0 0 40 - -
Fr, 15.02. 19:00 37 5 43 110° O
Fr, 15.02. 13:00 35 5 44 120° SO
Fr, 15.02. 7:00 40 6 47 110° O
Ortszeit Stärke Spitze Richtung
km/h Bft. km/h Grad Sektor
So, 17.02. 2:30 25 4 29 190° S
So, 17.02. 2:20 25 4 - 190° S
So, 17.02. 2:10 22 4 - 190° S
So, 17.02. 2:00 18 3 18 200° S
So, 17.02. 1:50 18 3 - 200° S
So, 17.02. 1:40 17 3 - 200° S
So, 17.02. 1:30 14 3 14 190° S
So, 17.02. 1:00 11 2 14 200° S
So, 17.02. 0:30 11 2 11 200° S
So, 17.02. 0:00 9 2 9 220° SW
Sa, 16.02. 23:30 7 2 11 220° SW
Ortszeit Untergrenze Bedeckung Gattung
total tief tief mittel hoch
So, 17.02. 1:00 10500 m 2/8 0/8 - - -
Sa, 16.02. 19:00 12000 m 2/8 0/8 - - -
Sa, 16.02. 13:00 12000 m 1/8 0/8 - - -
Sa, 16.02. 7:00 - 0/8 0/8 - - -
Sa, 16.02. 1:00 - 0/8 0/8 - - -
Fr, 15.02. 19:00 - 0/8 0/8 - - -
Fr, 15.02. 13:00 12000 m 1/8 0/8 - - -
Fr, 15.02. 7:00 - 0/8 0/8 - - -
Ortszeit Bedeckungsgrad in Achtel und Wolkenuntergrenze
So, 17.02. 2:30 keine Wolken
So, 17.02. 2:20 keine Wolken
So, 17.02. 2:10 keine Wolken
So, 17.02. 2:00 2(10500m)
So, 17.02. 1:50 2(10500m)
So, 17.02. 1:40 2(10500m)
So, 17.02. 1:30 3(10500m)
So, 17.02. 1:00 2(10500m)
So, 17.02. 0:30 1(10500m)
So, 17.02. 0:00 1(12000m)
Sa, 16.02. 23:30 1(12000m)
Ortszeit Stationsdruck (hPa) Tendenz (hPa in 3 Std.)
So, 17.02. 1:00 859 - 0,6
Sa, 16.02. 19:00 860 0,0
Sa, 16.02. 13:00 861 + 0,1
Sa, 16.02. 7:00 860 0,0
Sa, 16.02. 1:00 860 - 0,2
Fr, 15.02. 19:00 861 - 0,5
Fr, 15.02. 13:00 862 - 0,3
Fr, 15.02. 7:00 862 - 0,1
Ortszeit Stationsdruck (hPa) Tendenz (hPa in 3 Std.)
So, 17.02. 2:30 858 - 0,7
So, 17.02. 2:20 858 keine Meldung
So, 17.02. 2:10 858 keine Meldung
So, 17.02. 2:00 858 - 0,7
So, 17.02. 1:50 858 keine Meldung
So, 17.02. 1:40 858 keine Meldung
So, 17.02. 1:30 858 - 0,7
So, 17.02. 1:00 859 - 0,6
So, 17.02. 0:30 859 - 0,6
So, 17.02. 0:00 859 - 0,5
Sa, 16.02. 23:30 859 - 0,6
Ortszeit Schneehöhe (cm)
So, 17.02. 1:00 127
Sa, 16.02. 19:00 127
Sa, 16.02. 13:00 127
Sa, 16.02. 7:00 127
Sa, 16.02. 1:00 127
Fr, 15.02. 19:00 127
Fr, 15.02. 13:00 128
Fr, 15.02. 7:00 129
Ortszeit Schneehöhe (cm)
So, 17.02. 2:30 127
So, 17.02. 2:20 127
So, 17.02. 2:10 127
So, 17.02. 2:00 127
So, 17.02. 1:50 127
So, 17.02. 1:40 127
So, 17.02. 1:30 127
So, 17.02. 1:00 127
So, 17.02. 0:30 127
So, 17.02. 0:00 127
Sa, 16.02. 23:30 127
Link zu dieser Seite / Seite empfehlen

Das Wetter in ...